sensor_id;sensor_type;location;lat;lon;timestamp;P1;durP1;ratioP1;P2;durP2;ratioP2
5077;SDS011;2557;51.390;7.494;2023-01-09T00:01:00;1.57;;;1.47;;
5077;SDS011;2557;51.390;7.494;2023-01-09T00:03:27;2.10;;;1.80;;
5077;SDS011;2557;51.390;7.494;2023-01-09T00:05:53;3.10;;;1.63;;
5077;SDS011;2557;51.390;7.494;2023-01-09T00:08:19;2.47;;;1.93;;
5077;SDS011;2557;51.390;7.494;2023-01-09T00:10:45;2.50;;;1.77;;
5077;SDS011;2557;51.390;7.494;2023-01-09T00:13:11;1.60;;;1.50;;
5077;SDS011;2557;51.390;7.494;2023-01-09T00:15:38;1.87;;;1.40;;
5077;SDS011;2557;51.390;7.494;2023-01-09T00:18:04;2.50;;;1.67;;
5077;SDS011;2557;51.390;7.494;2023-01-09T00:20:30;1.30;;;1.20;;
5077;SDS011;2557;51.390;7.494;2023-01-09T00:22:56;1.40;;;1.30;;
5077;SDS011;2557;51.390;7.494;2023-01-09T00:25:22;2.37;;;1.23;;
5077;SDS011;2557;51.390;7.494;2023-01-09T00:27:48;1.50;;;1.40;;
5077;SDS011;2557;51.390;7.494;2023-01-09T00:30:14;1.97;;;1.20;;
5077;SDS011;2557;51.390;7.494;2023-01-09T00:32:40;1.50;;;1.40;;
5077;SDS011;2557;51.390;7.494;2023-01-09T00:35:06;3.30;;;1.30;;
5077;SDS011;2557;51.390;7.494;2023-01-09T00:37:34;1.40;;;1.30;;
5077;SDS011;2557;51.390;7.494;2023-01-09T00:40:00;2.60;;;1.33;;
5077;SDS011;2557;51.390;7.494;2023-01-09T00:42:26;1.30;;;1.20;;
5077;SDS011;2557;51.390;7.494;2023-01-09T00:44:56;1.17;;;1.10;;
5077;SDS011;2557;51.390;7.494;2023-01-09T00:47:28;1.00;;;1.00;;
5077;SDS011;2557;51.390;7.494;2023-01-09T00:49:57;1.20;;;1.10;;
5077;SDS011;2557;51.390;7.494;2023-01-09T00:52:24;1.20;;;1.10;;
5077;SDS011;2557;51.390;7.494;2023-01-09T00:54:50;1.23;;;1.13;;
5077;SDS011;2557;51.390;7.494;2023-01-09T00:57:16;1.10;;;1.00;;
5077;SDS011;2557;51.390;7.494;2023-01-09T00:59:42;1.30;;;1.20;;
5077;SDS011;2557;51.390;7.494;2023-01-09T01:02:09;1.87;;;1.07;;
5077;SDS011;2557;51.390;7.494;2023-01-09T01:04:35;2.40;;;1.10;;
5077;SDS011;2557;51.390;7.494;2023-01-09T01:07:19;0.97;;;0.97;;
5077;SDS011;2557;51.390;7.494;2023-01-09T01:10:14;0.93;;;0.93;;
5077;SDS011;2557;51.390;7.494;2023-01-09T01:12:40;1.20;;;1.10;;
5077;SDS011;2557;51.390;7.494;2023-01-09T01:15:07;1.20;;;1.10;;
5077;SDS011;2557;51.390;7.494;2023-01-09T01:17:34;1.83;;;1.13;;
5077;SDS011;2557;51.390;7.494;2023-01-09T01:20:01;1.03;;;1.03;;
5077;SDS011;2557;51.390;7.494;2023-01-09T01:22:27;1.00;;;1.00;;
5077;SDS011;2557;51.390;7.494;2023-01-09T01:24:53;1.47;;;1.17;;
5077;SDS011;2557;51.390;7.494;2023-01-09T01:27:19;1.20;;;1.10;;
5077;SDS011;2557;51.390;7.494;2023-01-09T01:29:45;1.20;;;1.10;;
5077;SDS011;2557;51.390;7.494;2023-01-09T01:32:11;1.17;;;1.00;;
5077;SDS011;2557;51.390;7.494;2023-01-09T01:34:37;1.10;;;1.10;;
5077;SDS011;2557;51.390;7.494;2023-01-09T01:37:03;1.10;;;1.00;;
5077;SDS011;2557;51.390;7.494;2023-01-09T01:39:29;1.10;;;1.10;;
5077;SDS011;2557;51.390;7.494;2023-01-09T01:41:55;1.10;;;1.00;;
5077;SDS011;2557;51.390;7.494;2023-01-09T01:47:06;1.00;;;1.00;;
5077;SDS011;2557;51.390;7.494;2023-01-09T01:49:32;1.13;;;1.03;;
5077;SDS011;2557;51.390;7.494;2023-01-09T01:51:58;1.53;;;1.07;;
5077;SDS011;2557;51.390;7.494;2023-01-09T01:54:25;1.20;;;1.10;;
5077;SDS011;2557;51.390;7.494;2023-01-09T01:56:54;1.10;;;1.00;;
5077;SDS011;2557;51.390;7.494;2023-01-09T01:59:23;1.10;;;1.00;;
5077;SDS011;2557;51.390;7.494;2023-01-09T02:01:52;1.37;;;1.20;;
5077;SDS011;2557;51.390;7.494;2023-01-09T02:04:18;1.20;;;1.20;;
5077;SDS011;2557;51.390;7.494;2023-01-09T02:06:45;1.20;;;1.10;;
5077;SDS011;2557;51.390;7.494;2023-01-09T02:09:11;1.40;;;1.30;;
5077;SDS011;2557;51.390;7.494;2023-01-09T02:11:45;2.07;;;1.27;;
5077;SDS011;2557;51.390;7.494;2023-01-09T02:14:11;1.43;;;1.10;;
5077;SDS011;2557;51.390;7.494;2023-01-09T02:26:48;3.53;;;1.40;;
5077;SDS011;2557;51.390;7.494;2023-01-09T02:32:06;1.90;;;1.30;;
5077;SDS011;2557;51.390;7.494;2023-01-09T02:34:38;1.20;;;1.10;;
5077;SDS011;2557;51.390;7.494;2023-01-09T02:37:18;1.20;;;1.10;;
5077;SDS011;2557;51.390;7.494;2023-01-09T02:42:26;3.70;;;1.30;;
5077;SDS011;2557;51.390;7.494;2023-01-09T02:44:52;1.30;;;1.20;;
5077;SDS011;2557;51.390;7.494;2023-01-09T02:49:45;1.40;;;1.30;;
5077;SDS011;2557;51.390;7.494;2023-01-09T02:52:14;4.33;;;1.80;;
5077;SDS011;2557;51.390;7.494;2023-01-09T02:54:49;1.80;;;1.70;;
5077;SDS011;2557;51.390;7.494;2023-01-09T03:00:07;4.00;;;1.83;;
5077;SDS011;2557;51.390;7.494;2023-01-09T03:02:41;5.17;;;2.27;;
5077;SDS011;2557;51.390;7.494;2023-01-09T03:05:15;2.83;;;1.60;;
5077;SDS011;2557;51.390;7.494;2023-01-09T03:07:44;2.40;;;1.97;;
5077;SDS011;2557;51.390;7.494;2023-01-09T03:10:17;5.07;;;1.80;;
5077;SDS011;2557;51.390;7.494;2023-01-09T03:12:44;2.07;;;1.60;;
5077;SDS011;2557;51.390;7.494;2023-01-09T03:15:11;1.70;;;1.60;;
5077;SDS011;2557;51.390;7.494;2023-01-09T03:17:40;2.93;;;1.97;;
5077;SDS011;2557;51.390;7.494;2023-01-09T03:20:07;2.80;;;1.70;;
5077;SDS011;2557;51.390;7.494;2023-01-09T03:22:34;1.90;;;1.80;;
5077;SDS011;2557;51.390;7.494;2023-01-09T03:25:00;2.20;;;2.10;;
5077;SDS011;2557;51.390;7.494;2023-01-09T03:27:26;3.60;;;1.93;;
5077;SDS011;2557;51.390;7.494;2023-01-09T03:29:52;5.40;;;2.90;;
5077;SDS011;2557;51.390;7.494;2023-01-09T03:32:20;2.17;;;2.00;;
5077;SDS011;2557;51.390;7.494;2023-01-09T03:34:46;5.00;;;2.00;;
5077;SDS011;2557;51.390;7.494;2023-01-09T03:37:12;3.87;;;1.90;;
5077;SDS011;2557;51.390;7.494;2023-01-09T03:39:38;5.20;;;2.60;;
5077;SDS011;2557;51.390;7.494;2023-01-09T03:42:04;8.03;;;2.90;;
5077;SDS011;2557;51.390;7.494;2023-01-09T03:44:30;3.00;;;2.40;;
5077;SDS011;2557;51.390;7.494;2023-01-09T03:46:56;3.57;;;2.53;;
5077;SDS011;2557;51.390;7.494;2023-01-09T03:49:22;2.60;;;2.43;;
5077;SDS011;2557;51.390;7.494;2023-01-09T03:51:49;2.60;;;2.43;;
5077;SDS011;2557;51.390;7.494;2023-01-09T03:54:15;3.17;;;2.90;;
5077;SDS011;2557;51.390;7.494;2023-01-09T03:56:41;2.87;;;2.67;;
5077;SDS011;2557;51.390;7.494;2023-01-09T03:59:07;3.50;;;2.50;;
5077;SDS011;2557;51.390;7.494;2023-01-09T04:01:33;3.10;;;2.90;;
5077;SDS011;2557;51.390;7.494;2023-01-09T04:03:59;3.17;;;2.53;;
5077;SDS011;2557;51.390;7.494;2023-01-09T04:06:25;3.30;;;2.70;;
5077;SDS011;2557;51.390;7.494;2023-01-09T04:08:51;4.00;;;3.00;;
5077;SDS011;2557;51.390;7.494;2023-01-09T04:11:17;3.87;;;2.63;;
5077;SDS011;2557;51.390;7.494;2023-01-09T04:13:43;3.27;;;3.07;;
5077;SDS011;2557;51.390;7.494;2023-01-09T04:16:09;3.33;;;3.10;;
5077;SDS011;2557;51.390;7.494;2023-01-09T04:18:35;2.50;;;2.30;;
5077;SDS011;2557;51.390;7.494;2023-01-09T04:21:01;6.23;;;3.00;;
5077;SDS011;2557;51.390;7.494;2023-01-09T04:23:27;5.00;;;3.40;;
5077;SDS011;2557;51.390;7.494;2023-01-09T04:25:53;3.00;;;2.80;;
5077;SDS011;2557;51.390;7.494;2023-01-09T04:28:19;4.83;;;2.80;;
5077;SDS011;2557;51.390;7.494;2023-01-09T04:30:45;3.83;;;3.10;;
5077;SDS011;2557;51.390;7.494;2023-01-09T04:33:11;4.43;;;3.60;;
5077;SDS011;2557;51.390;7.494;2023-01-09T04:35:37;3.17;;;2.93;;
5077;SDS011;2557;51.390;7.494;2023-01-09T04:38:03;3.30;;;3.00;;
5077;SDS011;2557;51.390;7.494;2023-01-09T04:40:29;3.03;;;2.73;;
5077;SDS011;2557;51.390;7.494;2023-01-09T04:42:55;3.90;;;2.77;;
5077;SDS011;2557;51.390;7.494;2023-01-09T04:45:21;3.50;;;3.20;;
5077;SDS011;2557;51.390;7.494;2023-01-09T04:47:47;3.27;;;2.50;;
5077;SDS011;2557;51.390;7.494;2023-01-09T04:50:13;3.13;;;2.83;;
5077;SDS011;2557;51.390;7.494;2023-01-09T04:52:39;3.00;;;2.63;;
5077;SDS011;2557;51.390;7.494;2023-01-09T04:55:05;3.00;;;2.70;;
5077;SDS011;2557;51.390;7.494;2023-01-09T04:57:31;4.50;;;2.20;;
5077;SDS011;2557;51.390;7.494;2023-01-09T04:59:58;3.40;;;2.40;;
5077;SDS011;2557;51.390;7.494;2023-01-09T05:02:24;5.20;;;2.97;;
5077;SDS011;2557;51.390;7.494;2023-01-09T05:04:50;7.90;;;2.33;;
5077;SDS011;2557;51.390;7.494;2023-01-09T05:07:16;9.17;;;3.20;;
5077;SDS011;2557;51.390;7.494;2023-01-09T05:09:42;3.70;;;2.53;;
5077;SDS011;2557;51.390;7.494;2023-01-09T05:12:08;4.00;;;1.93;;
5077;SDS011;2557;51.390;7.494;2023-01-09T05:14:34;4.90;;;2.50;;
5077;SDS011;2557;51.390;7.494;2023-01-09T05:17:00;2.80;;;2.13;;
5077;SDS011;2557;51.390;7.494;2023-01-09T05:19:26;8.07;;;2.50;;
5077;SDS011;2557;51.390;7.494;2023-01-09T05:21:52;5.37;;;3.20;;
5077;SDS011;2557;51.390;7.494;2023-01-09T05:24:18;5.27;;;2.43;;
5077;SDS011;2557;51.390;7.494;2023-01-09T05:26:44;3.40;;;2.40;;
5077;SDS011;2557;51.390;7.494;2023-01-09T05:29:10;6.30;;;2.43;;
5077;SDS011;2557;51.390;7.494;2023-01-09T05:31:36;4.60;;;2.60;;
5077;SDS011;2557;51.390;7.494;2023-01-09T05:34:02;2.90;;;2.40;;
5077;SDS011;2557;51.390;7.494;2023-01-09T05:36:28;2.57;;;2.30;;
5077;SDS011;2557;51.390;7.494;2023-01-09T05:38:54;3.90;;;2.60;;
5077;SDS011;2557;51.390;7.494;2023-01-09T05:41:22;2.47;;;2.27;;
5077;SDS011;2557;51.390;7.494;2023-01-09T05:43:48;3.87;;;2.27;;
5077;SDS011;2557;51.390;7.494;2023-01-09T05:46:14;4.80;;;2.53;;
5077;SDS011;2557;51.390;7.494;2023-01-09T05:48:40;8.33;;;2.10;;
5077;SDS011;2557;51.390;7.494;2023-01-09T05:51:06;6.00;;;3.93;;
5077;SDS011;2557;51.390;7.494;2023-01-09T05:53:32;2.50;;;1.40;;
5077;SDS011;2557;51.390;7.494;2023-01-09T05:55:58;4.00;;;1.60;;
5077;SDS011;2557;51.390;7.494;2023-01-09T05:58:24;2.00;;;1.20;;
5077;SDS011;2557;51.390;7.494;2023-01-09T06:00:51;7.57;;;1.70;;
5077;SDS011;2557;51.390;7.494;2023-01-09T06:03:17;2.87;;;1.60;;
5077;SDS011;2557;51.390;7.494;2023-01-09T06:05:43;2.53;;;1.37;;
5077;SDS011;2557;51.390;7.494;2023-01-09T06:08:09;8.53;;;1.67;;
5077;SDS011;2557;51.390;7.494;2023-01-09T06:10:35;5.23;;;1.87;;
5077;SDS011;2557;51.390;7.494;2023-01-09T06:13:01;5.47;;;1.80;;
5077;SDS011;2557;51.390;7.494;2023-01-09T06:15:27;2.93;;;1.40;;
5077;SDS011;2557;51.390;7.494;2023-01-09T06:17:53;3.43;;;1.50;;
5077;SDS011;2557;51.390;7.494;2023-01-09T06:20:19;2.63;;;1.73;;
5077;SDS011;2557;51.390;7.494;2023-01-09T06:22:45;2.63;;;1.70;;
5077;SDS011;2557;51.390;7.494;2023-01-09T06:25:11;9.90;;;2.33;;
5077;SDS011;2557;51.390;7.494;2023-01-09T06:27:38;2.47;;;1.63;;
5077;SDS011;2557;51.390;7.494;2023-01-09T06:30:04;2.37;;;1.63;;
5077;SDS011;2557;51.390;7.494;2023-01-09T06:32:30;1.87;;;1.50;;
5077;SDS011;2557;51.390;7.494;2023-01-09T06:34:56;8.17;;;1.60;;
5077;SDS011;2557;51.390;7.494;2023-01-09T06:37:22;3.20;;;1.70;;
5077;SDS011;2557;51.390;7.494;2023-01-09T06:39:48;1.57;;;1.47;;
5077;SDS011;2557;51.390;7.494;2023-01-09T06:42:14;4.17;;;1.80;;
5077;SDS011;2557;51.390;7.494;2023-01-09T06:44:40;2.97;;;2.07;;
5077;SDS011;2557;51.390;7.494;2023-01-09T06:47:06;4.47;;;1.90;;
5077;SDS011;2557;51.390;7.494;2023-01-09T06:49:32;2.63;;;1.47;;
5077;SDS011;2557;51.390;7.494;2023-01-09T06:51:58;3.83;;;1.70;;
5077;SDS011;2557;51.390;7.494;2023-01-09T06:54:29;10.33;;;1.90;;
5077;SDS011;2557;51.390;7.494;2023-01-09T06:56:55;1.73;;;1.60;;
5077;SDS011;2557;51.390;7.494;2023-01-09T06:59:21;3.83;;;1.90;;
5077;SDS011;2557;51.390;7.494;2023-01-09T07:01:47;4.20;;;1.57;;
5077;SDS011;2557;51.390;7.494;2023-01-09T07:04:13;4.17;;;1.97;;
5077;SDS011;2557;51.390;7.494;2023-01-09T07:06:39;1.90;;;1.57;;
5077;SDS011;2557;51.390;7.494;2023-01-09T07:09:05;3.27;;;1.80;;
5077;SDS011;2557;51.390;7.494;2023-01-09T07:11:31;2.33;;;1.77;;
5077;SDS011;2557;51.390;7.494;2023-01-09T07:13:57;1.87;;;1.50;;
5077;SDS011;2557;51.390;7.494;2023-01-09T07:16:23;1.70;;;1.60;;
5077;SDS011;2557;51.390;7.494;2023-01-09T07:18:49;4.23;;;2.03;;
5077;SDS011;2557;51.390;7.494;2023-01-09T07:21:16;3.93;;;1.50;;
5077;SDS011;2557;51.390;7.494;2023-01-09T07:23:42;1.60;;;1.50;;
5077;SDS011;2557;51.390;7.494;2023-01-09T07:26:08;6.53;;;1.37;;
5077;SDS011;2557;51.390;7.494;2023-01-09T07:28:34;3.00;;;1.77;;
5077;SDS011;2557;51.390;7.494;2023-01-09T07:31:00;4.03;;;3.25;;
5077;SDS011;2557;51.390;7.494;2023-01-09T07:33:28;8.05;;;2.63;;
5077;SDS011;2557;51.390;7.494;2023-01-09T07:35:54;2.40;;;1.60;;
5077;SDS011;2557;51.390;7.494;2023-01-09T07:38:20;3.20;;;2.17;;
5077;SDS011;2557;51.390;7.494;2023-01-09T07:40:46;6.57;;;1.90;;
5077;SDS011;2557;51.390;7.494;2023-01-09T07:43:12;4.10;;;1.67;;
5077;SDS011;2557;51.390;7.494;2023-01-09T07:45:38;2.23;;;1.60;;
5077;SDS011;2557;51.390;7.494;2023-01-09T07:48:04;6.57;;;1.87;;
5077;SDS011;2557;51.390;7.494;2023-01-09T07:50:30;3.83;;;1.77;;
5077;SDS011;2557;51.390;7.494;2023-01-09T07:52:56;2.10;;;2.00;;
5077;SDS011;2557;51.390;7.494;2023-01-09T07:55:23;4.70;;;1.70;;
5077;SDS011;2557;51.390;7.494;2023-01-09T07:57:49;2.40;;;1.70;;
5077;SDS011;2557;51.390;7.494;2023-01-09T08:00:15;1.50;;;1.40;;
5077;SDS011;2557;51.390;7.494;2023-01-09T08:02:41;1.50;;;1.40;;
5077;SDS011;2557;51.390;7.494;2023-01-09T08:05:07;6.40;;;1.87;;
5077;SDS011;2557;51.390;7.494;2023-01-09T08:07:37;1.97;;;1.77;;
5077;SDS011;2557;51.390;7.494;2023-01-09T08:10:03;6.00;;;1.60;;
5077;SDS011;2557;51.390;7.494;2023-01-09T08:12:29;7.13;;;1.60;;
5077;SDS011;2557;51.390;7.494;2023-01-09T08:14:55;4.63;;;1.77;;
5077;SDS011;2557;51.390;7.494;2023-01-09T08:17:21;6.73;;;2.00;;
5077;SDS011;2557;51.390;7.494;2023-01-09T08:19:47;3.83;;;1.70;;
5077;SDS011;2557;51.390;7.494;2023-01-09T08:22:13;11.27;;;2.70;;
5077;SDS011;2557;51.390;7.494;2023-01-09T08:24:39;4.33;;;2.23;;
5077;SDS011;2557;51.390;7.494;2023-01-09T08:27:05;10.70;;;2.17;;
5077;SDS011;2557;51.390;7.494;2023-01-09T08:29:31;2.17;;;1.97;;
5077;SDS011;2557;51.390;7.494;2023-01-09T08:31:57;4.43;;;2.00;;
5077;SDS011;2557;51.390;7.494;2023-01-09T08:34:23;1.93;;;1.83;;
5077;SDS011;2557;51.390;7.494;2023-01-09T08:36:49;4.20;;;1.70;;
5077;SDS011;2557;51.390;7.494;2023-01-09T08:39:17;1.67;;;1.57;;
5077;SDS011;2557;51.390;7.494;2023-01-09T08:41:43;1.57;;;1.40;;
5077;SDS011;2557;51.390;7.494;2023-01-09T08:44:27;1.70;;;1.43;;
5077;SDS011;2557;51.390;7.494;2023-01-09T08:47:14;5.23;;;2.63;;
5077;SDS011;2557;51.390;7.494;2023-01-09T08:49:40;3.43;;;1.70;;
5077;SDS011;2557;51.390;7.494;2023-01-09T08:52:06;1.90;;;1.47;;
5077;SDS011;2557;51.390;7.494;2023-01-09T08:54:33;4.10;;;1.80;;
5077;SDS011;2557;51.390;7.494;2023-01-09T08:57:02;3.77;;;1.47;;
5077;SDS011;2557;51.390;7.494;2023-01-09T08:59:28;1.80;;;1.70;;
5077;SDS011;2557;51.390;7.494;2023-01-09T09:01:54;2.47;;;1.90;;
5077;SDS011;2557;51.390;7.494;2023-01-09T09:04:21;1.60;;;1.50;;
5077;SDS011;2557;51.390;7.494;2023-01-09T09:06:47;3.13;;;2.30;;
5077;SDS011;2557;51.390;7.494;2023-01-09T09:09:13;3.07;;;1.73;;
5077;SDS011;2557;51.390;7.494;2023-01-09T09:11:39;4.17;;;1.47;;
5077;SDS011;2557;51.390;7.494;2023-01-09T09:14:05;2.40;;;1.97;;
5077;SDS011;2557;51.390;7.494;2023-01-09T09:16:50;2.77;;;1.80;;
5077;SDS011;2557;51.390;7.494;2023-01-09T09:19:16;5.47;;;2.13;;
5077;SDS011;2557;51.390;7.494;2023-01-09T09:21:42;4.10;;;2.80;;
5077;SDS011;2557;51.390;7.494;2023-01-09T09:24:08;3.60;;;1.90;;
5077;SDS011;2557;51.390;7.494;2023-01-09T09:26:34;4.53;;;2.03;;
5077;SDS011;2557;51.390;7.494;2023-01-09T09:29:00;2.80;;;1.70;;
5077;SDS011;2557;51.390;7.494;2023-01-09T09:31:26;3.03;;;2.83;;
5077;SDS011;2557;51.390;7.494;2023-01-09T09:33:52;1.87;;;1.50;;
5077;SDS011;2557;51.390;7.494;2023-01-09T09:36:18;3.73;;;1.57;;
5077;SDS011;2557;51.390;7.494;2023-01-09T09:38:44;5.17;;;1.87;;
5077;SDS011;2557;51.390;7.494;2023-01-09T09:49:35;1.43;;;1.33;;
5077;SDS011;2557;51.390;7.494;2023-01-09T09:52:07;2.70;;;1.60;;
5077;SDS011;2557;51.390;7.494;2023-01-09T09:54:38;1.93;;;1.60;;
5077;SDS011;2557;51.390;7.494;2023-01-09T09:57:05;3.90;;;1.90;;
5077;SDS011;2557;51.390;7.494;2023-01-09T09:59:35;4.87;;;1.50;;
5077;SDS011;2557;51.390;7.494;2023-01-09T10:04:35;2.20;;;1.40;;
5077;SDS011;2557;51.390;7.494;2023-01-09T10:07:03;1.80;;;1.70;;
5077;SDS011;2557;51.390;7.494;2023-01-09T10:12:04;1.70;;;1.60;;
5077;SDS011;2557;51.390;7.494;2023-01-09T10:14:35;2.50;;;2.03;;
5077;SDS011;2557;51.390;7.494;2023-01-09T10:17:07;1.50;;;1.40;;
5077;SDS011;2557;51.390;7.494;2023-01-09T10:24:56;2.50;;;1.73;;
5077;SDS011;2557;51.390;7.494;2023-01-09T10:32:29;6.20;;;3.20;;
5077;SDS011;2557;51.390;7.494;2023-01-09T10:37:44;1.90;;;1.80;;
5077;SDS011;2557;51.390;7.494;2023-01-09T10:42:40;2.27;;;1.80;;
5077;SDS011;2557;51.390;7.494;2023-01-09T10:47:36;1.77;;;1.50;;
5077;SDS011;2557;51.390;7.494;2023-01-09T10:50:14;2.70;;;2.43;;
5077;SDS011;2557;51.390;7.494;2023-01-09T10:52:42;7.27;;;2.50;;
5077;SDS011;2557;51.390;7.494;2023-01-09T10:58:00;3.47;;;2.83;;
5077;SDS011;2557;51.390;7.494;2023-01-09T11:00:27;3.87;;;1.93;;
5077;SDS011;2557;51.390;7.494;2023-01-09T11:02:53;2.50;;;2.27;;
5077;SDS011;2557;51.390;7.494;2023-01-09T11:05:26;2.77;;;2.17;;
5077;SDS011;2557;51.390;7.494;2023-01-09T11:07:54;6.20;;;3.60;;
5077;SDS011;2557;51.390;7.494;2023-01-09T11:10:21;2.70;;;2.50;;
5077;SDS011;2557;51.390;7.494;2023-01-09T11:12:47;2.67;;;2.47;;
5077;SDS011;2557;51.390;7.494;2023-01-09T11:15:21;2.90;;;2.70;;
5077;SDS011;2557;51.390;7.494;2023-01-09T11:17:53;3.30;;;3.00;;
5077;SDS011;2557;51.390;7.494;2023-01-09T11:20:23;5.80;;;3.20;;
5077;SDS011;2557;51.390;7.494;2023-01-09T11:22:50;3.87;;;3.17;;
5077;SDS011;2557;51.390;7.494;2023-01-09T11:25:17;8.30;;;3.50;;
5077;SDS011;2557;51.390;7.494;2023-01-09T11:28:02;6.80;;;3.10;;
5077;SDS011;2557;51.390;7.494;2023-01-09T11:30:31;2.50;;;2.30;;
5077;SDS011;2557;51.390;7.494;2023-01-09T11:33:00;5.60;;;2.27;;
5077;SDS011;2557;51.390;7.494;2023-01-09T11:35:37;3.90;;;3.50;;
5077;SDS011;2557;51.390;7.494;2023-01-09T11:38:04;4.63;;;2.27;;
5077;SDS011;2557;51.390;7.494;2023-01-09T11:40:53;8.90;;;2.90;;
5077;SDS011;2557;51.390;7.494;2023-01-09T11:45:45;5.43;;;2.90;;
5077;SDS011;2557;51.390;7.494;2023-01-09T11:48:15;3.80;;;2.57;;
5077;SDS011;2557;51.390;7.494;2023-01-09T11:50:42;6.07;;;2.53;;
5077;SDS011;2557;51.390;7.494;2023-01-09T11:53:17;3.47;;;3.03;;
5077;SDS011;2557;51.390;7.494;2023-01-09T11:55:44;4.67;;;2.40;;
5077;SDS011;2557;51.390;7.494;2023-01-09T11:58:12;3.57;;;2.63;;
5077;SDS011;2557;51.390;7.494;2023-01-09T12:00:44;8.23;;;2.80;;
5077;SDS011;2557;51.390;7.494;2023-01-09T12:03:17;8.50;;;3.10;;
5077;SDS011;2557;51.390;7.494;2023-01-09T12:05:49;3.63;;;2.70;;
5077;SDS011;2557;51.390;7.494;2023-01-09T12:13:47;3.23;;;2.80;;
5077;SDS011;2557;51.390;7.494;2023-01-09T12:18:59;3.00;;;2.37;;
5077;SDS011;2557;51.390;7.494;2023-01-09T12:29:16;1.97;;;1.87;;
5077;SDS011;2557;51.390;7.494;2023-01-09T12:31:54;9.47;;;2.73;;
5077;SDS011;2557;51.390;7.494;2023-01-09T12:35:11;3.30;;;2.13;;
5077;SDS011;2557;51.390;7.494;2023-01-09T12:39:59;7.17;;;2.50;;
5077;SDS011;2557;51.390;7.494;2023-01-09T12:50:09;2.53;;;2.27;;
5077;SDS011;2557;51.390;7.494;2023-01-09T12:52:48;4.30;;;2.60;;
5077;SDS011;2557;51.390;7.494;2023-01-09T12:55:20;7.07;;;2.50;;
5077;SDS011;2557;51.390;7.494;2023-01-09T12:57:50;4.43;;;2.57;;
5077;SDS011;2557;51.390;7.494;2023-01-09T13:00:20;7.60;;;3.00;;
5077;SDS011;2557;51.390;7.494;2023-01-09T13:05:34;2.00;;;1.90;;
5077;SDS011;2557;51.390;7.494;2023-01-09T13:08:10;5.07;;;2.20;;
5077;SDS011;2557;51.390;7.494;2023-01-09T13:10:39;4.80;;;2.47;;
5077;SDS011;2557;51.390;7.494;2023-01-09T13:16:00;5.40;;;2.20;;
5077;SDS011;2557;51.390;7.494;2023-01-09T13:18:37;4.50;;;2.27;;
5077;SDS011;2557;51.390;7.494;2023-01-09T13:21:05;4.63;;;2.37;;
5077;SDS011;2557;51.390;7.494;2023-01-09T13:26:16;3.23;;;1.90;;
5077;SDS011;2557;51.390;7.494;2023-01-09T13:28:45;2.93;;;1.83;;
5077;SDS011;2557;51.390;7.494;2023-01-09T13:33:48;3.97;;;2.43;;
5077;SDS011;2557;51.390;7.494;2023-01-09T13:36:24;3.00;;;1.70;;
5077;SDS011;2557;51.390;7.494;2023-01-09T13:38:50;8.47;;;2.20;;
5077;SDS011;2557;51.390;7.494;2023-01-09T13:41:18;1.70;;;1.60;;
5077;SDS011;2557;51.390;7.494;2023-01-09T13:44:03;7.30;;;1.83;;
5077;SDS011;2557;51.390;7.494;2023-01-09T13:46:31;1.97;;;1.77;;
5077;SDS011;2557;51.390;7.494;2023-01-09T13:48:59;3.03;;;2.03;;
5077;SDS011;2557;51.390;7.494;2023-01-09T13:51:36;3.47;;;1.93;;
5077;SDS011;2557;51.390;7.494;2023-01-09T13:59:42;5.47;;;2.13;;
5077;SDS011;2557;51.390;7.494;2023-01-09T14:04:54;3.20;;;2.13;;
5077;SDS011;2557;51.390;7.494;2023-01-09T14:07:21;8.07;;;2.50;;
5077;SDS011;2557;51.390;7.494;2023-01-09T14:09:51;3.10;;;2.30;;
5077;SDS011;2557;51.390;7.494;2023-01-09T14:12:19;4.03;;;2.10;;
5077;SDS011;2557;51.390;7.494;2023-01-09T14:14:46;3.47;;;2.50;;
5077;SDS011;2557;51.390;7.494;2023-01-09T14:17:16;4.67;;;2.27;;
5077;SDS011;2557;51.390;7.494;2023-01-09T14:19:43;7.50;;;2.93;;
5077;SDS011;2557;51.390;7.494;2023-01-09T14:22:22;5.33;;;2.53;;
5077;SDS011;2557;51.390;7.494;2023-01-09T14:24:49;10.03;;;4.33;;
5077;SDS011;2557;51.390;7.494;2023-01-09T14:32:54;5.47;;;3.17;;
5077;SDS011;2557;51.390;7.494;2023-01-09T14:35:26;3.73;;;2.83;;
5077;SDS011;2557;51.390;7.494;2023-01-09T14:38:03;3.17;;;2.80;;
5077;SDS011;2557;51.390;7.494;2023-01-09T14:40:30;4.93;;;2.60;;
5077;SDS011;2557;51.390;7.494;2023-01-09T14:42:58;3.33;;;2.87;;
5077;SDS011;2557;51.390;7.494;2023-01-09T14:45:25;5.60;;;3.40;;
5077;SDS011;2557;51.390;7.494;2023-01-09T14:47:55;5.03;;;2.80;;
5077;SDS011;2557;51.390;7.494;2023-01-09T14:53:19;3.10;;;2.50;;
5077;SDS011;2557;51.390;7.494;2023-01-09T14:55:57;8.17;;;6.67;;
5077;SDS011;2557;51.390;7.494;2023-01-09T14:58:25;4.80;;;3.30;;
5077;SDS011;2557;51.390;7.494;2023-01-09T15:03:17;6.30;;;2.60;;
5077;SDS011;2557;51.390;7.494;2023-01-09T15:05:44;6.90;;;3.30;;
5077;SDS011;2557;51.390;7.494;2023-01-09T15:08:13;9.10;;;2.80;;
5077;SDS011;2557;51.390;7.494;2023-01-09T15:10:40;7.20;;;2.90;;
5077;SDS011;2557;51.390;7.494;2023-01-09T15:13:20;4.10;;;3.10;;
5077;SDS011;2557;51.390;7.494;2023-01-09T15:15:48;9.43;;;2.77;;
5077;SDS011;2557;51.390;7.494;2023-01-09T15:18:20;5.33;;;2.50;;
5077;SDS011;2557;51.390;7.494;2023-01-09T15:20:50;9.13;;;3.20;;
5077;SDS011;2557;51.390;7.494;2023-01-09T15:23:22;8.33;;;4.47;;
5077;SDS011;2557;51.390;7.494;2023-01-09T15:25:48;6.50;;;3.23;;
5077;SDS011;2557;51.390;7.494;2023-01-09T15:28:24;3.73;;;3.03;;
5077;SDS011;2557;51.390;7.494;2023-01-09T15:30:59;4.20;;;2.50;;
5077;SDS011;2557;51.390;7.494;2023-01-09T15:33:25;4.70;;;3.03;;
5077;SDS011;2557;51.390;7.494;2023-01-09T15:35:52;5.90;;;3.07;;
5077;SDS011;2557;51.390;7.494;2023-01-09T15:38:24;3.30;;;2.90;;
5077;SDS011;2557;51.390;7.494;2023-01-09T15:40:58;6.43;;;2.90;;
5077;SDS011;2557;51.390;7.494;2023-01-09T15:43:28;15.40;;;3.50;;
5077;SDS011;2557;51.390;7.494;2023-01-09T15:45:54;5.33;;;3.00;;
5077;SDS011;2557;51.390;7.494;2023-01-09T15:48:28;3.30;;;3.00;;
5077;SDS011;2557;51.390;7.494;2023-01-09T15:50:57;3.33;;;2.87;;
5077;SDS011;2557;51.390;7.494;2023-01-09T15:53:24;4.00;;;3.27;;
5077;SDS011;2557;51.390;7.494;2023-01-09T15:56:01;6.27;;;3.53;;
5077;SDS011;2557;51.390;7.494;2023-01-09T15:58:37;6.47;;;3.53;;
5077;SDS011;2557;51.390;7.494;2023-01-09T16:01:12;7.63;;;3.60;;
5077;SDS011;2557;51.390;7.494;2023-01-09T16:03:40;10.10;;;3.80;;
5077;SDS011;2557;51.390;7.494;2023-01-09T16:06:07;5.23;;;3.43;;
5077;SDS011;2557;51.390;7.494;2023-01-09T16:08:38;5.40;;;3.60;;
5077;SDS011;2557;51.390;7.494;2023-01-09T16:11:06;6.33;;;3.70;;
5077;SDS011;2557;51.390;7.494;2023-01-09T16:13:36;5.27;;;3.60;;
5077;SDS011;2557;51.390;7.494;2023-01-09T16:16:03;4.50;;;4.10;;
5077;SDS011;2557;51.390;7.494;2023-01-09T16:18:33;6.50;;;4.00;;
5077;SDS011;2557;51.390;7.494;2023-01-09T16:21:02;4.97;;;4.47;;
5077;SDS011;2557;51.390;7.494;2023-01-09T16:23:29;6.37;;;4.97;;
5077;SDS011;2557;51.390;7.494;2023-01-09T16:28:31;5.00;;;4.60;;
5077;SDS011;2557;51.390;7.494;2023-01-09T16:30:58;4.93;;;4.43;;
5077;SDS011;2557;51.390;7.494;2023-01-09T16:33:26;5.00;;;4.60;;
5077;SDS011;2557;51.390;7.494;2023-01-09T16:35:52;6.93;;;4.80;;
5077;SDS011;2557;51.390;7.494;2023-01-09T16:38:19;8.33;;;5.07;;
5077;SDS011;2557;51.390;7.494;2023-01-09T16:40:58;5.63;;;4.20;;
5077;SDS011;2557;51.390;7.494;2023-01-09T16:43:43;6.43;;;4.40;;
5077;SDS011;2557;51.390;7.494;2023-01-09T16:46:09;4.90;;;3.87;;
5077;SDS011;2557;51.390;7.494;2023-01-09T16:48:35;5.50;;;4.20;;
5077;SDS011;2557;51.390;7.494;2023-01-09T16:51:03;8.03;;;4.90;;
5077;SDS011;2557;51.390;7.494;2023-01-09T16:53:29;7.23;;;5.20;;
5077;SDS011;2557;51.390;7.494;2023-01-09T16:55:56;4.80;;;4.37;;
5077;SDS011;2557;51.390;7.494;2023-01-09T16:58:23;12.60;;;6.00;;
5077;SDS011;2557;51.390;7.494;2023-01-09T17:00:50;5.30;;;4.40;;
5077;SDS011;2557;51.390;7.494;2023-01-09T17:03:16;6.07;;;4.83;;
5077;SDS011;2557;51.390;7.494;2023-01-09T17:05:44;5.00;;;4.43;;
5077;SDS011;2557;51.390;7.494;2023-01-09T17:08:24;5.83;;;4.97;;
5077;SDS011;2557;51.390;7.494;2023-01-09T17:10:51;9.20;;;4.77;;
5077;SDS011;2557;51.390;7.494;2023-01-09T17:13:17;13.60;;;4.97;;
5077;SDS011;2557;51.390;7.494;2023-01-09T17:15:44;4.97;;;4.47;;
5077;SDS011;2557;51.390;7.494;2023-01-09T17:18:13;9.80;;;5.13;;
5077;SDS011;2557;51.390;7.494;2023-01-09T17:20:41;9.03;;;4.10;;